Time;durP1;ratioP1;P1;durP2;ratioP2;P2;SDS_P1;SDS_P2;PMS_P1;PMS_P2;Temp;Humidity;BMP_temperature;BMP_pressure;BME280_temperature;BME280_humidity;BME280_pressure;Samples;Min_cycle;Max_cycle;Signal;HPM_P1;HPM_P2
2023/01/19 00:00:05;;;;;;;23.08;13.10;;;-0.80;99.90;;;;;;5028965;28;20059;-46
2023/01/19 00:02:31;;;;;;;19.65;12.35;;;-0.80;99.90;;;;;;5027430;28;20032;-51
2023/01/19 00:04:58;;;;;;;22.65;11.90;;;-0.90;99.90;;;;;;5027255;28;20034;-44
2023/01/19 00:07:23;;;;;;;24.13;12.40;;;-0.90;99.90;;;;;;5031367;28;20021;-44
2023/01/19 00:09:49;;;;;;;22.52;11.80;;;-0.90;99.90;;;;;;5029005;28;20036;-49
2023/01/19 00:12:14;;;;;;;17.05;10.65;;;-1.00;99.90;;;;;;5030320;28;20548;-48
2023/01/19 00:14:40;;;;;;;19.27;11.38;;;-0.90;99.90;;;;;;5030473;28;20029;-46
2023/01/19 00:17:06;;;;;;;26.13;11.35;;;-0.90;99.90;;;;;;5029967;28;20480;-49
2023/01/19 00:19:31;;;;;;;18.88;10.23;;;-0.80;99.90;;;;;;5028473;28;20052;-46
2023/01/19 00:21:57;;;;;;;17.73;11.85;;;-0.90;99.90;;;;;;5028030;28;20055;-46
2023/01/19 00:24:29;;;;;;;19.05;11.73;;;-0.80;99.90;;;;;;5066524;28;20533;-47
2023/01/19 00:26:55;;;;;;;18.52;10.70;;;-0.80;99.90;;;;;;5068198;28;20021;-48
2023/01/19 00:29:20;;;;;;;20.98;11.02;;;-0.70;99.90;;;;;;5068217;28;20021;-46
2023/01/19 00:31:46;;;;;;;22.67;11.13;;;-0.70;99.90;;;;;;5063170;28;20012;-51
2023/01/19 00:34:11;;;;;;;22.48;11.43;;;-0.80;99.90;;;;;;5062883;28;20029;-44
2023/01/19 00:36:37;;;;;;;17.23;9.80;;;-0.80;99.90;;;;;;5064945;28;20075;-52
2023/01/19 00:39:02;;;;;;;18.48;10.43;;;-0.80;99.90;;;;;;5064591;28;20419;-44
2023/01/19 00:44:12;;;;;;;18.85;11.55;;;-0.80;99.90;;;;;;5064227;28;20078;-47
2023/01/19 00:46:38;;;;;;;21.48;11.50;;;-0.70;99.90;;;;;;5063157;28;20036;-47
2023/01/19 00:49:04;;;;;;;17.23;11.15;;;-0.70;99.90;;;;;;5064323;28;20739;-49
2023/01/19 00:51:30;;;;;;;20.80;11.57;;;-0.60;99.90;;;;;;5064425;28;20021;-48
2023/01/19 00:53:56;;;;;;;19.42;11.20;;;-0.70;99.90;;;;;;5065423;28;20064;-46
2023/01/19 00:56:21;;;;;;;19.85;11.77;;;-0.70;99.90;;;;;;5066692;28;20522;-48
2023/01/19 00:58:46;;;;;;;16.02;10.07;;;-0.70;99.90;;;;;;5067860;28;20102;-45
2023/01/19 01:01:13;;;;;;;21.92;11.15;;;-0.60;99.90;;;;;;5066530;28;20036;-48
2023/01/19 01:03:38;;;;;;;19.38;11.07;;;-0.60;99.90;;;;;;5066935;28;20020;-45
2023/01/19 01:06:07;;;;;;;20.88;10.73;;;-0.60;99.90;;;;;;5067532;28;20021;-45
2023/01/19 01:08:32;;;;;;;19.98;10.80;;;-0.60;99.90;;;;;;5066139;28;20093;-48
2023/01/19 01:10:58;;;;;;;22.42;11.05;;;-0.60;99.90;;;;;;5067384;28;20028;-45
2023/01/19 01:13:24;;;;;;;18.35;11.57;;;-0.70;99.90;;;;;;5065267;28;20025;-46
2023/01/19 01:15:50;;;;;;;19.88;12.52;;;-0.60;99.90;;;;;;5067243;28;20031;-47
2023/01/19 01:18:16;;;;;;;220.75;107.60;;;-0.70;99.90;;;;;;5076851;22;20050;-49
2023/01/19 01:20:42;;;;;;;24.63;13.80;;;-0.70;99.90;;;;;;5029076;28;20022;-50
2023/01/19 01:23:07;;;;;;;22.90;12.73;;;-0.70;99.90;;;;;;5027234;28;20200;-53
2023/01/19 01:25:36;;;;;;;23.40;10.77;;;-0.70;99.90;;;;;;5027946;28;20733;-50
2023/01/19 01:28:03;;;;;;;16.38;11.00;;;-0.70;99.90;;;;;;5027738;28;20491;-54
2023/01/19 01:30:29;;;;;;;14.18;10.15;;;-0.70;99.90;;;;;;5027607;28;20017;-51
2023/01/19 01:32:54;;;;;;;18.02;10.93;;;-0.70;99.90;;;;;;5027125;28;20088;-53
2023/01/19 01:35:20;;;;;;;26.38;12.00;;;-0.80;99.90;;;;;;5017371;28;20034;-50
2023/01/19 01:37:45;;;;;;;20.13;11.23;;;-0.70;99.90;;;;;;5013047;28;20025;-54
2023/01/19 01:40:13;;;;;;;19.52;11.70;;;-0.80;99.90;;;;;;5014680;28;20034;-55
2023/01/19 01:42:41;;;;;;;26.40;11.98;;;-0.80;99.90;;;;;;5013857;28;20441;-52
2023/01/19 01:45:26;;;;;;;20.88;11.45;;;-0.80;99.90;;;;;;5014784;28;20088;-48
2023/01/19 01:47:53;;;;;;;30.52;14.23;;;-0.80;99.90;;;;;;5014596;28;20421;-51
2023/01/19 01:50:30;;;;;;;18.60;11.40;;;-0.80;99.90;;;;;;5014270;28;20390;-55
2023/01/19 01:53:04;;;;;;;18.35;11.13;;;-0.80;99.90;;;;;;5014007;28;20018;-54
2023/01/19 01:55:31;;;;;;;17.95;11.55;;;-0.80;99.90;;;;;;5014056;28;20444;-54
2023/01/19 01:58:01;;;;;;;15.93;11.43;;;-0.80;99.90;;;;;;5014051;28;20029;-52
2023/01/19 02:02:49;;;;;;;32.83;11.40;;;-0.70;99.90;;;;;;5014162;28;20022;-55
2023/01/19 02:03:13;;;;;;;29.13;13.32;;;-0.70;99.90;;;;;;5012134;28;20041;-50
2023/01/19 02:05:39;;;;;;;22.67;14.73;;;-0.70;99.90;;;;;;5014081;28;20425;-53
2023/01/19 02:13:49;;;;;;;22.00;13.20;;;-0.70;99.90;;;;;;5013189;28;20064;-54
2023/01/19 02:16:16;;;;;;;22.38;11.57;;;-0.70;99.90;;;;;;5013985;28;20018;-54
2023/01/19 02:18:42;;;;;;;19.67;12.32;;;-0.70;99.90;;;;;;5012311;28;20065;-51
2023/01/19 02:21:18;;;;;;;19.95;12.10;;;-0.70;99.90;;;;;;5013778;28;20026;-52
2023/01/19 02:23:48;;;;;;;19.85;11.77;;;-0.80;99.90;;;;;;5012926;28;20569;-50
2023/01/19 02:26:27;;;;;;;21.98;12.88;;;-0.80;99.90;;;;;;5012580;28;20087;-51
2023/01/19 02:29:00;;;;;;;23.08;11.82;;;-0.80;99.90;;;;;;5013598;28;20033;-54
2023/01/19 02:31:28;;;;;;;19.02;10.98;;;-0.70;99.90;;;;;;5013616;28;20033;-54
2023/01/19 02:33:55;;;;;;;23.88;12.30;;;-0.70;99.90;;;;;;5012664;28;20037;-48
2023/01/19 02:36:26;;;;;;;22.95;12.02;;;-0.70;99.90;;;;;;5013321;28;20506;-52
2023/01/19 02:38:55;;;;;;;18.15;12.00;;;-0.70;99.90;;;;;;5013440;28;20038;-55
2023/01/19 02:41:25;;;;;;;20.65;12.32;;;-0.80;99.90;;;;;;5013443;28;20031;-56
2023/01/19 02:43:52;;;;;;;17.48;11.90;;;-0.80;99.90;;;;;;5011202;28;20109;-54
2023/01/19 02:46:17;;;;;;;21.23;12.68;;;-0.80;99.90;;;;;;5012326;28;20448;-55
2023/01/19 02:48:43;;;;;;;22.83;12.48;;;-0.80;99.90;;;;;;5013205;28;20305;-53
2023/01/19 02:51:23;;;;;;;22.52;12.23;;;-0.80;99.90;;;;;;5013101;28;20026;-48
2023/01/19 02:54:38;;;;;;;20.13;12.07;;;-0.80;99.90;;;;;;5012339;28;20032;-56
2023/01/19 02:57:30;;;;;;;18.92;12.02;;;-0.80;99.90;;;;;;5007976;28;20038;-52
2023/01/19 03:00:35;;;;;;;19.50;12.07;;;-0.70;99.90;;;;;;5013126;28;20036;-52
2023/01/19 03:03:27;;;;;;;23.35;12.30;;;-0.70;99.90;;;;;;5005942;28;20386;-53
2023/01/19 03:06:14;;;;;;;22.48;12.20;;;-0.70;99.90;;;;;;5012857;28;20022;-55
2023/01/19 03:08:51;;;;;;;17.77;12.10;;;-0.70;99.90;;;;;;5012819;28;20018;-49
2023/01/19 03:11:17;;;;;;;22.83;12.32;;;-0.60;99.90;;;;;;5011473;28;20569;-53
2023/01/19 03:13:51;;;;;;;19.65;12.05;;;-0.60;99.90;;;;;;5010686;28;20512;-50
2023/01/19 03:16:25;;;;;;;19.98;13.27;;;-0.60;99.90;;;;;;5012640;28;20041;-55
2023/01/19 03:18:55;;;;;;;17.92;11.82;;;-0.60;99.90;;;;;;5012731;28;20113;-57
2023/01/19 03:21:26;;;;;;;22.63;11.55;;;-0.60;99.90;;;;;;5012542;28;20033;-54
2023/01/19 03:23:54;;;;;;;19.95;12.63;;;-0.50;99.90;;;;;;5011716;28;20049;-53
2023/01/19 03:26:25;;;;;;;18.77;12.10;;;-0.50;99.90;;;;;;5012528;28;20022;-53
2023/01/19 03:28:53;;;;;;;18.60;11.63;;;-0.40;99.90;;;;;;5011443;28;20478;-53
2023/01/19 03:31:24;;;;;;;14.70;11.43;;;-0.40;99.90;;;;;;5012468;28;20026;-52
2023/01/19 03:33:54;;;;;;;20.02;11.40;;;-0.40;99.90;;;;;;5011757;28;20034;-53
2023/01/19 03:36:30;;;;;;;24.08;12.25;;;-0.40;99.90;;;;;;5012204;28;20026;-54
2023/01/19 03:38:58;;;;;;;18.33;12.15;;;-0.40;99.90;;;;;;5012395;28;20441;-57
2023/01/19 03:41:26;;;;;;;20.52;11.75;;;-0.40;99.90;;;;;;5012368;28;20037;-54
2023/01/19 03:43:53;;;;;;;19.50;12.35;;;-0.40;99.90;;;;;;5010069;28;20068;-54
2023/01/19 03:46:20;;;;;;;20.95;12.25;;;-0.40;99.90;;;;;;5010784;28;20477;-53
2023/01/19 03:48:46;;;;;;;21.70;13.07;;;-0.50;99.90;;;;;;5010712;28;20164;-55
2023/01/19 03:51:13;;;;;;;20.52;13.15;;;-0.50;99.90;;;;;;5010866;28;20056;-53
2023/01/19 03:53:39;;;;;;;20.85;13.07;;;-0.50;99.90;;;;;;5011324;28;20029;-52
2023/01/19 03:56:07;;;;;;;24.52;12.68;;;-0.50;99.90;;;;;;5012566;28;20108;-56
2023/01/19 03:58:33;;;;;;;23.73;13.13;;;-0.60;99.90;;;;;;5011701;28;20359;-56
2023/01/19 04:00:58;;;;;;;20.23;12.68;;;-0.60;99.90;;;;;;5010914;28;20030;-57
2023/01/19 04:03:24;;;;;;;24.13;14.18;;;-0.60;99.90;;;;;;5010969;28;20434;-52
2023/01/19 04:05:49;;;;;;;23.73;13.48;;;-0.60;99.90;;;;;;5012028;28;20037;-53
2023/01/19 04:08:15;;;;;;;20.10;13.65;;;-0.70;99.90;;;;;;5011802;28;20049;-53
2023/01/19 04:10:40;;;;;;;24.38;15.05;;;-0.60;99.90;;;;;;5011820;28;20022;-55
2023/01/19 04:13:06;;;;;;;29.83;14.65;;;-0.60;99.90;;;;;;5011098;28;20038;-57
2023/01/19 04:15:32;;;;;;;21.27;14.07;;;-0.70;99.90;;;;;;5011631;28;20030;-53
2023/01/19 04:17:59;;;;;;;22.25;14.10;;;-0.60;99.90;;;;;;5011542;28;20037;-54
2023/01/19 04:20:26;;;;;;;26.40;15.43;;;-0.60;99.90;;;;;;5011778;28;20390;-55
2023/01/19 04:22:53;;;;;;;28.02;15.43;;;-0.60;99.90;;;;;;5010918;28;20433;-55
2023/01/19 04:25:18;;;;;;;21.85;14.70;;;-0.60;99.90;;;;;;5011802;28;20050;-49
2023/01/19 04:27:44;;;;;;;21.70;15.40;;;-0.60;99.90;;;;;;5011684;28;20065;-54
2023/01/19 04:30:10;;;;;;;26.17;16.42;;;-0.60;99.90;;;;;;5011804;28;20551;-55
2023/01/19 04:32:35;;;;;;;26.80;15.57;;;-0.50;99.90;;;;;;5011193;28;20030;-56
2023/01/19 04:35:01;;;;;;;28.70;15.00;;;-0.50;99.90;;;;;;5011663;28;20104;-53
2023/01/19 04:37:27;;;;;;;24.02;15.57;;;-0.40;99.90;;;;;;5011482;28;20034;-53
2023/01/19 04:39:52;;;;;;;24.45;15.85;;;-0.40;99.90;;;;;;5011469;28;20101;-53
2023/01/19 04:42:18;;;;;;;23.70;14.75;;;-0.40;99.90;;;;;;5010892;28;20506;-53
2023/01/19 04:44:44;;;;;;;26.70;16.58;;;-0.40;99.90;;;;;;5011426;28;20474;-55
2023/01/19 04:47:10;;;;;;;25.83;16.35;;;-0.40;99.90;;;;;;5011691;28;20338;-48
2023/01/19 04:49:38;;;;;;;25.45;15.32;;;-0.30;99.90;;;;;;5011571;28;20034;-54
2023/01/19 04:52:05;;;;;;;30.25;17.88;;;-0.30;99.90;;;;;;5010622;28;20028;-56
2023/01/19 04:54:30;;;;;;;31.40;16.77;;;-0.30;99.90;;;;;;5011404;28;20021;-57
2023/01/19 04:56:56;;;;;;;29.02;16.17;;;-0.30;99.90;;;;;;5011345;28;20114;-52
2023/01/19 04:59:22;;;;;;;31.17;17.20;;;-0.30;99.90;;;;;;5011268;28;20113;-56
2023/01/19 05:01:47;;;;;;;26.77;14.35;;;-0.20;99.90;;;;;;5009388;28;20104;-55
2023/01/19 05:04:13;;;;;;;25.20;15.77;;;-0.20;99.90;;;;;;5010525;28;20030;-57
2023/01/19 05:06:38;;;;;;;24.02;16.67;;;-0.20;99.90;;;;;;5011221;28;20022;-57
2023/01/19 05:09:06;;;;;;;23.73;16.80;;;-0.20;99.90;;;;;;5011279;28;20022;-55
2023/01/19 05:11:32;;;;;;;25.38;15.77;;;-0.20;99.90;;;;;;5014937;28;20076;-56
2023/01/19 05:13:57;;;;;;;25.52;17.20;;;-0.20;99.90;;;;;;5014414;28;20022;-52
2023/01/19 05:16:23;;;;;;;25.10;14.77;;;-0.10;99.90;;;;;;5014862;28;20026;-51
2023/01/19 05:18:49;;;;;;;28.95;16.42;;;-0.10;99.90;;;;;;5013394;28;20030;-51
2023/01/19 05:21:14;;;;;;;37.55;17.15;;;0.00;99.90;;;;;;5014807;28;20033;-54
2023/01/19 05:23:40;;;;;;;27.55;17.20;;;-0.10;99.90;;;;;;5013903;28;20036;-50
2023/01/19 05:26:05;;;;;;;28.63;16.73;;;-0.10;99.90;;;;;;5013520;28;20033;-55
2023/01/19 05:28:32;;;;;;;27.70;15.73;;;-0.10;99.90;;;;;;5014931;28;20029;-51
2023/01/19 05:30:57;;;;;;;25.00;16.35;;;-0.10;99.90;;;;;;5014545;28;20064;-54
2023/01/19 05:33:23;;;;;;;28.20;16.23;;;-0.10;99.90;;;;;;5013925;28;20069;-55
2023/01/19 05:35:50;;;;;;;23.88;15.43;;;0.00;99.90;;;;;;5014514;28;20588;-54
2023/01/19 05:38:16;;;;;;;28.58;15.63;;;0.10;99.90;;;;;;5012989;28;20034;-54
2023/01/19 05:40:41;;;;;;;24.73;15.50;;;0.20;99.90;;;;;;5014454;28;20030;-53
2023/01/19 05:43:07;;;;;;;26.23;17.10;;;0.20;99.90;;;;;;5012462;28;20053;-52
2023/01/19 05:45:33;;;;;;;27.67;16.10;;;0.20;99.90;;;;;;5014180;28;20478;-55
2023/01/19 05:47:58;;;;;;;28.05;17.20;;;0.30;99.90;;;;;;5014083;28;20030;-57
2023/01/19 05:50:24;;;;;;;28.75;16.80;;;0.40;99.90;;;;;;5014375;28;20152;-58
2023/01/19 05:52:52;;;;;;;27.95;16.60;;;0.30;99.90;;;;;;5013542;28;20097;-54
2023/01/19 05:55:18;;;;;;;19.67;14.57;;;0.30;99.90;;;;;;5014060;28;20049;-55
2023/01/19 05:57:43;;;;;;;24.00;15.63;;;0.30;99.90;;;;;;5014052;28;20022;-53
2023/01/19 06:00:09;;;;;;;21.63;13.52;;;0.40;99.90;;;;;;5014036;28;20038;-54
2023/01/19 06:02:35;;;;;;;29.55;14.60;;;0.50;99.90;;;;;;5011676;28;20456;-50
2023/01/19 06:05:01;;;;;;;25.15;15.27;;;0.50;99.90;;;;;;5013918;28;20101;-55
2023/01/19 06:07:26;;;;;;;25.48;14.55;;;0.60;99.90;;;;;;5012567;28;20125;-56
2023/01/19 06:09:51;;;;;;;26.95;14.07;;;0.60;99.90;;;;;;5012453;28;20076;-55
2023/01/19 06:12:17;;;;;;;24.02;14.82;;;0.60;99.90;;;;;;5013272;28;20022;-48
2023/01/19 06:14:43;;;;;;;19.75;13.80;;;0.70;99.90;;;;;;5013931;28;20391;-53
2023/01/19 06:17:08;;;;;;;20.17;14.50;;;0.70;99.90;;;;;;5013646;28;20029;-53
2023/01/19 06:19:34;;;;;;;24.92;14.50;;;0.60;99.90;;;;;;5013421;28;20044;-57
2023/01/19 06:22:00;;;;;;;27.40;13.73;;;0.70;99.90;;;;;;5012672;28;20609;-54
2023/01/19 06:24:26;;;;;;;27.38;15.25;;;0.70;99.90;;;;;;5013444;28;20076;-53
2023/01/19 06:26:52;;;;;;;26.52;15.57;;;0.70;99.90;;;;;;5013498;28;20014;-55
2023/01/19 06:29:18;;;;;;;25.45;14.73;;;0.80;99.90;;;;;;5013547;28;20025;-55
2023/01/19 06:31:44;;;;;;;24.65;15.70;;;0.80;99.90;;;;;;5013458;28;20075;-55
2023/01/19 06:34:09;;;;;;;25.15;15.73;;;0.80;99.90;;;;;;5012797;28;20029;-53
2023/01/19 06:36:35;;;;;;;21.98;15.48;;;0.80;99.90;;;;;;5013597;28;20481;-54
2023/01/19 06:39:04;;;;;;;23.30;14.77;;;0.80;99.90;;;;;;5013379;28;20037;-54
2023/01/19 06:41:29;;;;;;;26.27;15.85;;;0.80;99.90;;;;;;5013530;28;20100;-51
2023/01/19 06:43:55;;;;;;;30.42;15.23;;;0.80;99.90;;;;;;5011365;28;20176;-51
2023/01/19 06:46:20;;;;;;;25.40;15.93;;;0.80;99.90;;;;;;5013397;28;20025;-47
2023/01/19 06:48:46;;;;;;;24.77;16.27;;;0.80;99.90;;;;;;5013023;28;20482;-49
2023/01/19 06:51:12;;;;;;;27.17;16.35;;;0.80;99.90;;;;;;5012887;28;20026;-51
2023/01/19 06:53:38;;;;;;;23.85;15.95;;;0.80;99.90;;;;;;5012315;28;20433;-50
2023/01/19 06:56:03;;;;;;;29.38;15.88;;;0.70;99.90;;;;;;5012793;28;20428;-49
2023/01/19 06:58:30;;;;;;;28.42;16.40;;;0.70;99.90;;;;;;5012948;28;20026;-53
2023/01/19 07:01:01;;;;;;;27.92;15.38;;;0.70;99.90;;;;;;5011253;28;20034;-51
2023/01/19 07:03:27;;;;;;;26.48;17.05;;;0.70;99.90;;;;;;5010735;28;20048;-52
2023/01/19 07:05:52;;;;;;;23.75;16.20;;;0.70;99.90;;;;;;5012962;28;20034;-50
2023/01/19 07:08:18;;;;;;;25.33;16.50;;;0.60;99.90;;;;;;5012832;28;20687;-55
2023/01/19 07:10:44;;;;;;;22.40;15.40;;;0.70;99.90;;;;;;5012664;28;20053;-52
2023/01/19 07:13:10;;;;;;;25.13;16.55;;;0.70;99.90;;;;;;5011875;28;20068;-52
2023/01/19 07:15:36;;;;;;;23.77;16.70;;;0.70;99.90;;;;;;5012226;28;20052;-52
2023/01/19 07:18:06;;;;;;;25.73;17.02;;;0.70;99.90;;;;;;5011982;28;20445;-56
2023/01/19 07:20:32;;;;;;;31.83;15.52;;;0.70;99.90;;;;;;5051772;22;20037;-50
2023/01/19 07:22:57;;;;;;;28.05;15.90;;;0.60;99.90;;;;;;5031187;28;20029;-51
2023/01/19 07:25:23;;;;;;;25.65;16.15;;;0.60;99.90;;;;;;5032044;28;20079;-48
2023/01/19 07:27:49;;;;;;;28.35;16.58;;;0.50;99.90;;;;;;5032103;28;20029;-45
2023/01/19 07:30:14;;;;;;;24.92;15.27;;;0.50;99.90;;;;;;5032122;28;20029;-48
2023/01/19 07:32:41;;;;;;;25.35;16.27;;;0.50;99.90;;;;;;5029504;28;20064;-48
2023/01/19 07:35:08;;;;;;;26.80;16.95;;;0.50;99.90;;;;;;5030810;28;20040;-47
2023/01/19 07:37:34;;;;;;;26.27;16.08;;;0.40;99.90;;;;;;5032090;28;20025;-47
2023/01/19 07:39:59;;;;;;;26.65;17.38;;;0.40;99.90;;;;;;5031955;28;20017;-46
2023/01/19 07:42:25;;;;;;;29.10;17.80;;;0.40;99.90;;;;;;5031155;28;20028;-49
2023/01/19 07:44:51;;;;;;;28.40;17.08;;;0.40;99.90;;;;;;5031745;28;20040;-48
2023/01/19 07:47:16;;;;;;;25.20;16.33;;;0.40;99.90;;;;;;5031724;28;20068;-48
2023/01/19 07:49:42;;;;;;;36.00;18.95;;;0.40;99.90;;;;;;5031686;28;20032;-47
2023/01/19 07:52:08;;;;;;;32.25;17.48;;;0.50;99.90;;;;;;5030600;28;20503;-51
2023/01/19 07:54:33;;;;;;;26.60;16.40;;;0.40;99.90;;;;;;5031896;28;20113;-47
2023/01/19 07:56:59;;;;;;;25.33;17.75;;;0.40;99.90;;;;;;5031547;28;20023;-54
2023/01/19 07:59:26;;;;;;;24.42;16.27;;;0.50;99.90;;;;;;5031755;28;20041;-50
2023/01/19 08:01:52;;;;;;;26.17;16.08;;;0.50;99.90;;;;;;5029322;28;20399;-46
2023/01/19 08:04:18;;;;;;;25.20;15.77;;;0.40;99.90;;;;;;5031408;28;20389;-47
2023/01/19 08:06:45;;;;;;;28.27;16.42;;;0.50;99.90;;;;;;5031431;28;20064;-51
2023/01/19 08:09:10;;;;;;;23.55;16.05;;;0.50;99.90;;;;;;5031405;28;20444;-50
2023/01/19 08:11:36;;;;;;;31.70;17.73;;;0.50;99.90;;;;;;5031387;28;20029;-49
2023/01/19 08:14:02;;;;;;;23.67;15.55;;;0.50;99.90;;;;;;5030778;28;20036;-49
2023/01/19 08:16:28;;;;;;;25.65;16.40;;;0.50;99.90;;;;;;5031259;28;20512;-47
2023/01/19 08:18:53;;;;;;;28.25;17.45;;;0.60;99.90;;;;;;5031186;28;20228;-44
2023/01/19 08:21:19;;;;;;;26.85;15.63;;;0.60;99.90;;;;;;5029895;28;20472;-47
2023/01/19 08:23:51;;;;;;;27.58;15.73;;;0.60;99.90;;;;;;5030615;28;20044;-51
2023/01/19 08:26:26;;;;;;;25.38;17.20;;;0.60;99.90;;;;;;5031346;28;20038;-47
2023/01/19 08:28:53;;;;;;;25.25;15.32;;;0.70;99.90;;;;;;5031296;28;20049;-47
2023/01/19 08:31:20;;;;;;;22.67;15.82;;;0.70;99.90;;;;;;5031645;28;20029;-46
2023/01/19 08:33:45;;;;;;;22.92;15.07;;;0.80;99.90;;;;;;5030903;28;20025;-56
2023/01/19 08:36:11;;;;;;;21.42;14.15;;;0.80;99.90;;;;;;5033824;28;20404;-48
2023/01/19 08:38:39;;;;;;;24.83;14.98;;;0.90;99.90;;;;;;5040663;28;20030;-49
2023/01/19 08:41:05;;;;;;;25.33;16.60;;;0.90;99.90;;;;;;5044104;28;20088;-52
2023/01/19 08:43:30;;;;;;;24.95;16.20;;;1.00;99.90;;;;;;5037564;28;20050;-49
2023/01/19 08:45:56;;;;;;;25.58;15.38;;;1.10;99.90;;;;;;5039626;28;20037;-51
2023/01/19 08:48:22;;;;;;;28.58;16.63;;;1.20;99.90;;;;;;5032090;28;20041;-49
2023/01/19 08:50:48;;;;;;;28.83;17.38;;;1.20;99.90;;;;;;5033148;28;20087;-53
2023/01/19 08:53:14;;;;;;;27.60;15.65;;;1.20;99.90;;;;;;5032746;28;20080;-46
2023/01/19 08:55:40;;;;;;;24.92;16.33;;;1.10;99.90;;;;;;5033123;28;20074;-47
2023/01/19 08:58:07;;;;;;;24.15;16.00;;;1.20;99.90;;;;;;5031376;28;20108;-54
2023/01/19 09:00:36;;;;;;;23.60;15.05;;;1.20;99.90;;;;;;5033161;28;20022;-48
2023/01/19 09:03:03;;;;;;;26.02;16.55;;;1.20;99.90;;;;;;5032162;28;20217;-48
2023/01/19 09:05:34;;;;;;;32.25;17.58;;;1.20;99.90;;;;;;5033888;28;20147;-48
2023/01/19 09:08:01;;;;;;;28.20;16.75;;;1.30;99.90;;;;;;5035513;28;20021;-51
2023/01/19 09:10:30;;;;;;;19.77;13.45;;;1.90;99.90;;;;;;5033864;28;20390;-50
2023/01/19 09:12:56;;;;;;;21.60;13.05;;;2.70;99.90;;;;;;5034342;28;20029;-48
2023/01/19 09:15:22;;;;;;;19.83;12.65;;;3.70;99.90;;;;;;5034796;28;20113;-50
2023/01/19 09:17:48;;;;;;;17.48;12.95;;;4.70;99.90;;;;;;5033052;28;20128;-50
2023/01/19 09:20:13;;;;;;;17.92;11.40;;;5.60;99.90;;;;;;5034520;28;20041;-52
2023/01/19 09:22:39;;;;;;;17.08;11.98;;;6.60;99.90;;;;;;5033676;28;20043;-51
2023/01/19 09:25:06;;;;;;;15.55;9.85;;;6.90;99.90;;;;;;5033347;28;20044;-49
2023/01/19 09:27:31;;;;;;;12.02;10.00;;;7.30;99.90;;;;;;5034397;28;20028;-54
2023/01/19 09:29:57;;;;;;;13.85;9.93;;;7.40;99.90;;;;;;5034435;28;20029;-53
2023/01/19 09:32:23;;;;;;;18.20;11.27;;;7.70;99.90;;;;;;5033838;28;20044;-51
2023/01/19 09:34:48;;;;;;;14.50;10.57;;;7.90;99.90;;;;;;5034562;28;20032;-49
2023/01/19 09:37:15;;;;;;;12.55;9.57;;;8.00;99.90;;;;;;5032907;28;20022;-49
2023/01/19 09:39:40;;;;;;;13.25;10.50;;;8.10;99.90;;;;;;5034327;28;20051;-54
2023/01/19 09:42:23;;;;;;;12.93;8.63;;;8.20;99.90;;;;;;5033523;28;20104;-52
2023/01/19 09:44:50;;;;;;;17.27;10.95;;;8.40;99.90;;;;;;5034365;28;20045;-54
2023/01/19 09:47:18;;;;;;;12.77;9.38;;;8.00;99.90;;;;;;5034098;28;20389;-52
2023/01/19 09:49:51;;;;;;;13.30;9.73;;;8.20;99.90;;;;;;5033975;28;20151;-50
2023/01/19 09:52:17;;;;;;;13.65;10.18;;;8.30;99.90;;;;;;5033420;28;20030;-55
2023/01/19 09:54:54;;;;;;;13.90;9.77;;;8.30;99.90;;;;;;5033253;28;20116;-49
2023/01/19 09:57:26;;;;;;;13.30;9.18;;;8.00;99.90;;;;;;5029543;28;20029;-50
2023/01/19 09:59:56;;;;;;;12.32;9.82;;;7.90;99.90;;;;;;5033469;28;20025;-50
2023/01/19 10:02:47;;;;;;;14.60;10.45;;;7.50;99.90;;;;;;5033290;28;20032;-51
2023/01/19 10:05:25;;;;;;;14.30;10.07;;;7.30;99.90;;;;;;5033264;28;20025;-51
2023/01/19 10:08:13;;;;;;;14.68;9.73;;;7.00;99.90;;;;;;5033658;28;20404;-50
2023/01/19 10:10:42;;;;;;;14.20;10.55;;;6.60;99.90;;;;;;5033696;28;20104;-48
2023/01/19 10:13:20;;;;;;;18.55;11.30;;;5.80;99.90;;;;;;5032801;28;20477;-51
2023/01/19 10:15:57;;;;;;;20.00;11.80;;;5.20;99.90;;;;;;5033558;28;20492;-49
2023/01/19 10:18:35;;;;;;;16.63;10.73;;;4.90;99.90;;;;;;5032271;28;20021;-44
2023/01/19 10:21:09;;;;;;;19.42;12.43;;;4.80;99.90;;;;;;5033009;28;20555;-50
2023/01/19 10:23:35;;;;;;;19.52;11.75;;;4.50;99.90;;;;;;5032012;28;20505;-48
2023/01/19 10:26:07;;;;;;;18.77;11.90;;;4.30;99.90;;;;;;5033032;28;20067;-53
2023/01/19 10:28:32;;;;;;;21.67;12.25;;;4.00;99.90;;;;;;5032660;28;20021;-53
2023/01/19 10:30:59;;;;;;;18.88;12.25;;;3.80;99.90;;;;;;5032746;28;20115;-53
2023/01/19 10:33:24;;;;;;;18.83;12.05;;;3.60;99.90;;;;;;5032382;28;20469;-50
2023/01/19 10:35:50;;;;;;;19.45;12.20;;;3.60;99.90;;;;;;5032918;28;20025;-48
2023/01/19 10:38:20;;;;;;;17.02;11.35;;;3.50;99.90;;;;;;5029986;28;20429;-48
2023/01/19 10:40:57;;;;;;;21.40;13.98;;;3.40;99.90;;;;;;5025387;28;20025;-52
2023/01/19 10:43:43;;;;;;;23.75;14.25;;;3.40;99.90;;;;;;5014843;28;20026;-53
2023/01/19 10:46:18;;;;;;;;;;;3.30;99.90;;;;;;5019372;28;20040;-47
2023/01/19 10:48:46;;;;;;;19.67;12.75;;;3.40;99.90;;;;;;5032771;28;19909;-49
2023/01/19 10:51:12;;;;;;;20.75;12.80;;;3.40;99.90;;;;;;5033014;28;20029;-48
2023/01/19 10:53:41;;;;;;;20.20;13.05;;;3.40;99.90;;;;;;5032082;28;20033;-49
2023/01/19 10:56:21;;;;;;;21.17;12.77;;;3.40;99.90;;;;;;5032608;28;20109;-49
2023/01/19 10:58:47;;;;;;;23.85;12.07;;;3.40;99.90;;;;;;5032565;28;20407;-51
2023/01/19 11:01:24;;;;;;;21.45;12.52;;;3.40;99.90;;;;;;5031711;28;20025;-52
2023/01/19 11:03:52;;;;;;;16.13;12.23;;;3.40;99.90;;;;;;5031416;28;20043;-47
2023/01/19 11:06:24;;;;;;;16.58;11.88;;;3.50;99.90;;;;;;5032808;28;20029;-49
2023/01/19 11:08:52;;;;;;;15.40;11.40;;;3.50;99.90;;;;;;5028282;28;20018;-50
2023/01/19 11:11:23;;;;;;;17.25;11.55;;;3.50;99.90;;;;;;5013301;28;20018;-46
2023/01/19 11:14:10;;;;;;;14.63;10.90;;;3.50;99.90;;;;;;5022042;28;20105;-51
2023/01/19 11:16:38;;;;;;;21.85;11.63;;;3.60;99.90;;;;;;5042563;28;20041;-50
2023/01/19 11:19:06;;;;;;;13.52;9.68;;;3.60;99.90;;;;;;5051781;28;20021;-46
2023/01/19 11:21:32;;;;;;;15.52;10.40;;;3.60;99.90;;;;;;5041317;28;20025;-48
2023/01/19 11:24:04;;;;;;;15.75;9.40;;;3.50;99.90;;;;;;5031538;28;20104;-51
2023/01/19 11:26:39;;;;;;;14.32;10.32;;;3.50;99.90;;;;;;5032011;28;20079;-51
2023/01/19 11:29:05;;;;;;;13.73;8.77;;;3.40;99.90;;;;;;5032575;28;20420;-49
2023/01/19 11:31:33;;;;;;;12.25;8.65;;;3.40;99.90;;;;;;5032074;28;20032;-49
2023/01/19 11:34:01;;;;;;;14.07;9.13;;;3.40;99.90;;;;;;5031633;28;20112;-48
2023/01/19 11:36:30;;;;;;;12.68;8.98;;;3.40;99.90;;;;;;5032288;28;20034;-50
2023/01/19 11:39:22;;;;;;;11.38;8.30;;;3.40;99.90;;;;;;5031132;28;20029;-54
2023/01/19 11:41:51;;;;;;;14.43;8.43;;;3.40;99.90;;;;;;5032403;28;20648;-43
2023/01/19 11:44:32;;;;;;;12.13;8.45;;;3.40;99.90;;;;;;5032406;28;20037;-50
2023/01/19 11:46:59;;;;;;;11.88;8.95;;;3.40;99.90;;;;;;5046026;28;20614;-47
2023/01/19 11:49:49;;;;;;;12.18;8.30;;;3.40;99.90;;;;;;5044228;28;20385;-52
2023/01/19 11:52:26;;;;;;;9.10;7.53;;;3.50;99.90;;;;;;5031433;28;20399;-48
2023/01/19 11:55:04;;;;;;;12.75;7.88;;;3.50;99.90;;;;;;5032184;28;20018;-51
2023/01/19 11:57:29;;;;;;;8.85;6.75;;;3.60;99.90;;;;;;5030288;28;20083;-49
2023/01/19 11:59:57;;;;;;;9.55;7.40;;;3.60;99.90;;;;;;5029769;28;20061;-49
2023/01/19 12:02:33;;;;;;;11.82;8.60;;;3.70;99.90;;;;;;5030067;28;20450;-51
2023/01/19 12:05:03;;;;;;;;;;;3.70;99.90;;;;;;5030780;28;20028;-49
2023/01/19 12:07:32;;;;;;;11.32;8.60;;;3.80;99.90;;;;;;5029999;28;19905;-50
2023/01/19 12:10:14;;;;;;;12.05;8.52;;;3.80;99.90;;;;;;5028866;28;20030;-48
2023/01/19 12:12:40;;;;;;;12.55;8.65;;;3.80;99.90;;;;;;5028695;28;20036;-47
2023/01/19 12:15:21;;;;;;;16.65;8.85;;;3.70;99.90;;;;;;5027696;28;20389;-44
2023/01/19 12:17:53;;;;;;;16.27;7.35;;;3.70;99.90;;;;;;5030443;28;20029;-51
2023/01/19 12:20:35;;;;;;;11.15;7.75;;;3.70;99.90;;;;;;5030904;28;20029;-51
2023/01/19 12:23:09;;;;;;;7.75;5.75;;;3.70;99.90;;;;;;5030326;28;20516;-49
2023/01/19 12:25:50;;;;;;;8.95;5.53;;;3.70;99.90;;;;;;5030668;28;20025;-49
2023/01/19 12:28:19;;;;;;;7.72;5.00;;;3.70;99.90;;;;;;5031145;28;20025;-46
2023/01/19 12:30:44;;;;;;;7.93;5.45;;;3.70;99.90;;;;;;5029780;28;20036;-51
2023/01/19 12:33:25;;;;;;;10.65;5.00;;;3.70;99.90;;;;;;5030539;28;20487;-49
2023/01/19 12:36:04;;;;;;;5.65;5.05;;;3.60;99.90;;;;;;5030719;28;20039;-49
2023/01/19 12:38:40;;;;;;;8.15;4.75;;;3.70;99.90;;;;;;5031098;28;20450;-47
2023/01/19 12:41:27;;;;;;;6.90;3.97;;;3.70;99.90;;;;;;5030636;28;20067;-46
2023/01/19 12:44:12;;;;;;;8.68;5.35;;;3.70;99.90;;;;;;5029057;28;20397;-51
2023/01/19 12:46:40;;;;;;;9.93;6.30;;;3.70;99.90;;;;;;5029229;28;20022;-44
2023/01/19 12:49:25;;;;;;;10.43;7.15;;;3.60;99.90;;;;;;5026565;28;20033;-53
2023/01/19 12:52:10;;;;;;;12.82;7.35;;;3.60;99.90;;;;;;5029118;28;20113;-47